TROJ23 YSRI-YPTN
Flight info
| Callsign | TROJ23 |
|---|---|
| Flight time | N/A |
| Altitude | 28000 |
| Route | RIC H226 ENPAG T74 TN |
| Aircraft | C130/M-SDE2E3FGRY/H |
Departure
| Time | 2026-05-04 08:16 |
|---|---|
| Airport | RAAF Base Richmond (YSRI) |
Arrival
| Time | N/A |
|---|---|
| Airport | Tindal Airport (YPTN) |
| Time | Latitude | Longitude | Altitude | Speed | Heading |
|---|---|---|---|---|---|
| 2026-05-04 07:46 | -33.60474 | 150.79020 | 68 ft | 0 kts | 197° |
| 2026-05-04 07:58 | -33.60476 | 150.79029 | 61 ft | 1 kts | 98° |
| 2026-05-04 07:58 | -33.60459 | 150.79041 | 61 ft | 5 kts | 37° |
| 2026-05-04 07:59 | -33.60445 | 150.79062 | 64 ft | 1 kts | 60° |
| 2026-05-04 07:59 | -33.60445 | 150.79075 | 66 ft | 1 kts | 100° |
| 2026-05-04 07:59 | -33.60454 | 150.79103 | 60 ft | 3 kts | 108° |
| 2026-05-04 07:59 | -33.60462 | 150.79136 | 63 ft | 6 kts | 107° |
| 2026-05-04 08:00 | -33.60470 | 150.79167 | 67 ft | 3 kts | 107° |
| 2026-05-04 08:00 | -33.60477 | 150.79202 | 67 ft | 7 kts | 91° |
| 2026-05-04 08:00 | -33.60460 | 150.79254 | 64 ft | 5 kts | 77° |
| 2026-05-04 08:02 | -33.60611 | 150.79347 | 63 ft | 2 kts | 198° |
| 2026-05-04 08:02 | -33.60632 | 150.79339 | 59 ft | 0 kts | 196° |
| 2026-05-04 08:13 | -33.60657 | 150.79330 | 61 ft | 4 kts | 197° |
| 2026-05-04 08:13 | -33.60702 | 150.79312 | 56 ft | 9 kts | 200° |
| 2026-05-04 08:13 | -33.60715 | 150.79289 | 59 ft | 3 kts | 258° |
| 2026-05-04 08:14 | -33.60711 | 150.79261 | 63 ft | 0 kts | 288° |
| 2026-05-04 08:16 | -33.59794 | 150.75618 | 601 ft | 184 kts | 291° |
| 2026-05-04 08:16 | -33.59393 | 150.74146 | 1144 ft | 190 kts | 290° |
| 2026-05-04 08:16 | -33.58973 | 150.72648 | 1795 ft | 188 kts | 292° |
| 2026-05-04 08:17 | -33.58548 | 150.71190 | 2454 ft | 187 kts | 294° |
| 2026-05-04 08:17 | -33.58056 | 150.69730 | 2987 ft | 191 kts | 299° |
| 2026-05-04 08:17 | -33.57541 | 150.68267 | 3592 ft | 192 kts | 295° |
| 2026-05-04 08:17 | -33.57101 | 150.66793 | 4316 ft | 184 kts | 296° |
| 2026-05-04 08:19 | -33.52336 | 150.57426 | 8138 ft | 195 kts | 312° |
| 2026-05-04 08:19 | -33.51444 | 150.56191 | 8677 ft | 195 kts | 312° |
| 2026-05-04 08:20 | -33.50568 | 150.54985 | 9187 ft | 194 kts | 312° |
| 2026-05-04 08:20 | -33.49681 | 150.53771 | 9689 ft | 193 kts | 312° |
| 2026-05-04 08:20 | -33.48796 | 150.52566 | 10159 ft | 192 kts | 313° |
| 2026-05-04 08:20 | -33.47911 | 150.51369 | 10623 ft | 191 kts | 313° |
| 2026-05-04 08:21 | -33.47028 | 150.50181 | 11056 ft | 191 kts | 313° |
| 2026-05-04 08:21 | -33.46146 | 150.48999 | 11501 ft | 190 kts | 313° |
| 2026-05-04 08:21 | -33.45265 | 150.47819 | 11910 ft | 190 kts | 313° |
| 2026-05-04 08:21 | -33.44385 | 150.46643 | 12348 ft | 189 kts | 313° |
| 2026-05-04 08:22 | -33.43502 | 150.45476 | 12794 ft | 188 kts | 313° |
| 2026-05-04 08:22 | -33.42619 | 150.44319 | 13224 ft | 187 kts | 313° |
| 2026-05-04 08:24 | -33.36389 | 150.36258 | 16117 ft | 193 kts | 313° |
| 2026-05-04 08:24 | -33.35470 | 150.35085 | 16495 ft | 192 kts | 313° |
| 2026-05-04 08:24 | -33.34554 | 150.33924 | 16877 ft | 192 kts | 313° |
| 2026-05-04 08:24 | -33.33632 | 150.32764 | 17273 ft | 192 kts | 313° |
| 2026-05-04 08:25 | -33.32716 | 150.31615 | 17654 ft | 192 kts | 314° |
| 2026-05-04 08:25 | -33.31790 | 150.30461 | 18030 ft | 192 kts | 313° |
| 2026-05-04 08:25 | -33.30867 | 150.29315 | 18377 ft | 192 kts | 314° |
| 2026-05-04 08:25 | -33.30032 | 150.28284 | 18673 ft | 191 kts | 314° |
| 2026-05-04 08:26 | -33.29109 | 150.27149 | 18952 ft | 191 kts | 314° |
| 2026-05-04 08:27 | -33.23419 | 150.18670 | 21110 ft | 186 kts | 301° |
| 2026-05-04 08:28 | -33.22784 | 150.17331 | 21415 ft | 184 kts | 302° |
| 2026-05-04 08:28 | -33.22165 | 150.16011 | 21743 ft | 179 kts | 301° |
| 2026-05-04 08:28 | -33.21561 | 150.14722 | 21980 ft | 180 kts | 301° |
| 2026-05-04 08:28 | -33.20899 | 150.13352 | 21870 ft | 198 kts | 301° |
| 2026-05-04 08:29 | -33.20210 | 150.11893 | 21843 ft | 201 kts | 301° |
| 2026-05-04 08:29 | -33.19534 | 150.10461 | 21759 ft | 197 kts | 301° |
| 2026-05-04 08:29 | -33.18857 | 150.09033 | 21580 ft | 198 kts | 302° |
| 2026-05-04 08:31 | -33.14193 | 149.99131 | 22496 ft | 196 kts | 301° |